This demonstration page uses our WeatherBlox Daily Observations layout. Learn more.

Left ArrowRight Arrow

36.17497, -115.13722

Hourly Observations for December 31, 2020

Temp ( °F °C ) Dew Point ( °F °C ) Humidity (%) Winds ( mph kmh ) Pressure ( in mb ) Visibility ( mi km ) Precip ( " mm )
12:53 am 00:53 Clear 39 3.9 12 -11.1 33 33 NW 7 11 30.06 1018 10 16.0934 0 0
1:53 am 01:53 Clear 42 5.6 10 -12.2 27 27 NNW 6 9 30.05 1018 10 16.0934 0 0
2:53 am 02:53 Clear 43 6.1 11 -11.7 27 27 Calm 30.01 1016 10 16.0934 0 0
3:53 am 03:53 Clear 41 5 13 -10.6 32 32 SSW 5 7 30 1016 10 16.0934 0 0
4:53 am 04:53 Clear 42 5.6 11 -11.7 28 28 ENE 6 9 29.99 1016 10 16.0934 0 0
5:53 am 05:53 Clear 42 5.6 11 -11.7 28 28 Calm 30 1016 10 16.0934 0 0
6:53 am 06:53 Cloudy 42 5.6 13 -10.6 30 30 Calm 30.01 1016 10 16.0934 0 0
7:53 am 07:53 Cloudy 44 6.7 14 -10 30 30 WNW 5 7 30.03 1017 10 16.0934 0 0
8:53 am 08:53 Mostly Cloudy 46 7.8 14 -10 27 27 Calm 30.04 1017 10 16.0934 0 0
9:53 am 09:53 Cloudy 48 8.9 14 -10 25 25 Calm 30.06 1018 10 16.0934 0 0
10:53 am 10:53 Mostly Sunny 51 10.6 25 -3.9 36 36 NNW 21 33 30.02 1017 10 16.0934 0 0
11:53 am 11:53 Cloudy 52 11.1 29 -1.7 41 41 NNW 17 28 30 1016 10 16.0934 0.001 0.001
12:53 pm 12:53 Cloudy 52 11.1 31 -0.6 45 45 NNW 14 22 30 1016 10 16.0934 0 0
1:53 pm 13:53 Partly Cloudy 52 11.1 31 -0.6 45 45 NNW 15 24 30 1016 10 16.0934 0 0
2:53 pm 14:53 Cloudy 53 11.7 31 -0.6 43 43 NNW 14 22 30 1016 10 16.0934 0 0
3:53 pm 15:53 Cloudy 54 12.2 30 -1.1 40 40 NNW 13 20 30.01 1016 10 16.0934 0 0
4:53 pm 16:53 Cloudy 52 11.1 32 0 47 47 ENE 7 11 30.03 1017 10 16.0934 0 0
5:53 pm 17:53 Cloudy 49 9.4 33 0.6 55 55 E 7 11 30.04 1017 10 16.0934 0 0
6:53 pm 18:53 Clear 48 8.9 33 0.6 56 56 ENE 3 6 30.06 1018 10 16.0934 0 0
7:53 pm 19:53 Clear 48 8.9 32 0 54 54 Calm 30.06 1018 10 16.0934 0 0
8:53 pm 20:53 Clear 50 10 30 -1.1 46 46 N 9 15 30.06 1018 10 16.0934 0 0
9:53 pm 21:53 Clear 51 10.6 29 -1.7 43 43 NW 17 28 30.05 1018 10 16.0934 0 0
10:53 pm 22:53 Clear 50 10 27 -2.8 41 41 NNW 17 28 30.06 1018 10 16.0934 0 0
11:53 pm 23:53 Clear 50 10 26 -3.3 39 39 NNW 17 28 30.07 1018 10 16.0934 0 0

Powered by AerisWeather